createdAt,value
2019-03-25T00:01:46.464Z,2.74
2019-03-25T00:04:16.301Z,2.65
2019-03-25T00:06:48.007Z,2.69
2019-03-25T00:09:17.757Z,2.38
2019-03-25T00:11:47.707Z,2.25
2019-03-25T00:14:19.325Z,2.17
2019-03-25T00:16:49.762Z,2.39
2019-03-25T00:19:19.522Z,2.22
2019-03-25T00:21:49.119Z,2.26
2019-03-25T00:24:23.190Z,2.35
2019-03-25T00:26:55.893Z,2.27
2019-03-25T00:29:25.458Z,2.37
2019-03-25T00:31:58.959Z,2.10
2019-03-25T00:34:29.353Z,2.02
2019-03-25T00:36:59.021Z,2.02
2019-03-25T00:39:28.682Z,2.11
2019-03-25T00:41:58.301Z,1.88
2019-03-25T00:44:27.986Z,1.91
2019-03-25T00:46:57.599Z,1.94
2019-03-25T00:49:27.769Z,1.89
2019-03-25T00:52:01.493Z,1.88
2019-03-25T00:54:31.134Z,1.99
2019-03-25T00:57:01.602Z,1.92
2019-03-25T00:59:33.070Z,1.92
2019-03-25T01:02:04.534Z,1.97
2019-03-25T01:04:37.532Z,1.76
2019-03-25T01:07:07.323Z,1.82
2019-03-25T01:09:36.987Z,1.98
2019-03-25T01:12:06.722Z,2.04
2019-03-25T01:14:39.134Z,2.13
2019-03-25T01:17:08.879Z,1.66
2019-03-25T01:19:41.047Z,1.69
2019-03-25T01:22:10.674Z,1.74
2019-03-25T01:24:40.412Z,1.40
2019-03-25T01:27:11.396Z,1.75
2019-03-25T01:29:41.149Z,1.91
2019-03-25T01:32:10.825Z,1.96
2019-03-25T01:34:41.587Z,1.83
2019-03-25T01:37:11.208Z,1.57
2019-03-25T01:39:40.931Z,1.42
2019-03-25T01:42:11.566Z,1.51
2019-03-25T01:44:42.601Z,1.59
2019-03-25T01:47:12.277Z,1.57
2019-03-25T01:49:41.976Z,1.68
2019-03-25T01:52:11.591Z,1.66
2019-03-25T01:54:41.278Z,1.72
2019-03-25T01:57:10.900Z,1.80
2019-03-25T01:59:40.533Z,1.75
2019-03-25T02:02:10.127Z,1.56
2019-03-25T02:04:39.875Z,1.42
2019-03-25T02:07:09.464Z,1.48
2019-03-25T02:09:39.043Z,1.50
2019-03-25T02:12:10.324Z,1.52
2019-03-25T02:14:41.092Z,1.48
2019-03-25T02:17:11.135Z,1.45
2019-03-25T02:19:40.787Z,1.47
2019-03-25T02:22:10.478Z,1.40
2019-03-25T02:24:40.050Z,1.08
2019-03-25T02:27:09.722Z,1.30
2019-03-25T02:29:40.869Z,1.31
2019-03-25T02:32:10.505Z,1.33
2019-03-25T02:34:40.099Z,1.19
2019-03-25T02:37:09.718Z,1.33
2019-03-25T02:39:39.390Z,1.37
2019-03-25T02:42:12.145Z,1.23
2019-03-25T02:44:41.784Z,1.16
2019-03-25T02:47:12.396Z,1.29
2019-03-25T02:49:41.994Z,1.22
2019-03-25T02:52:11.777Z,1.25
2019-03-25T02:54:43.590Z,1.33
2019-03-25T02:57:13.239Z,1.30
2019-03-25T02:59:45.097Z,1.23
2019-03-25T03:02:17.119Z,1.22
2019-03-25T03:04:47.850Z,1.22
2019-03-25T03:07:17.533Z,1.24
2019-03-25T03:09:47.193Z,0.88
2019-03-25T03:12:16.824Z,1.10
2019-03-25T03:14:46.485Z,0.61
2019-03-25T03:17:17.782Z,0.73
2019-03-25T03:19:47.402Z,0.92
2019-03-25T03:22:17.251Z,0.66
2019-03-25T03:24:46.917Z,0.66
2019-03-25T03:27:16.572Z,0.49
2019-03-25T03:29:46.159Z,0.66
2019-03-25T03:32:17.989Z,0.87
2019-03-25T03:34:47.618Z,0.99
2019-03-25T03:37:17.337Z,0.98
2019-03-25T03:39:47.007Z,1.01
2019-03-25T03:42:16.702Z,0.67
2019-03-25T03:44:48.235Z,0.66
2019-03-25T03:47:17.895Z,0.68
2019-03-25T03:49:47.555Z,0.60
2019-03-25T03:52:17.146Z,0.59
2019-03-25T03:54:47.188Z,0.60
2019-03-25T03:57:16.852Z,0.65
2019-03-25T03:59:48.787Z,0.69
2019-03-25T04:02:18.410Z,0.56
2019-03-25T04:04:48.053Z,0.62
2019-03-25T04:07:17.729Z,0.69
2019-03-25T04:09:47.394Z,0.75
2019-03-25T04:12:17.070Z,0.63
2019-03-25T04:14:48.530Z,0.54
2019-03-25T04:17:18.244Z,0.69
2019-03-25T04:19:47.851Z,0.73
2019-03-25T04:22:17.501Z,0.77
2019-03-25T04:24:47.196Z,0.74
2019-03-25T04:27:16.839Z,0.62
2019-03-25T04:29:46.493Z,0.54
2019-03-25T04:32:16.196Z,0.48
2019-03-25T04:34:45.805Z,0.41
2019-03-25T04:37:15.418Z,0.35
2019-03-25T04:39:45.023Z,0.35
2019-03-25T04:42:14.661Z,0.34
2019-03-25T04:44:44.275Z,0.39
2019-03-25T04:47:14.020Z,0.17
2019-03-25T04:49:43.585Z,0.26
2019-03-25T04:52:13.282Z,0.37
2019-03-25T04:54:42.914Z,0.53
2019-03-25T04:57:12.527Z,0.50
2019-03-25T04:59:42.190Z,0.43
2019-03-25T05:02:11.890Z,0.48
2019-03-25T05:04:41.572Z,0.47
2019-03-25T05:07:11.235Z,0.56
2019-03-25T05:09:40.866Z,0.32
2019-03-25T05:12:10.508Z,0.38
2019-03-25T05:14:40.147Z,0.31
2019-03-25T05:17:12.773Z,0.37
2019-03-25T05:19:44.559Z,0.47
2019-03-25T05:22:14.177Z,0.48
2019-03-25T05:24:44.406Z,0.50
2019-03-25T05:27:14.153Z,0.51
2019-03-25T05:29:45.084Z,0.72
2019-03-25T05:32:16.993Z,0.30
2019-03-25T05:34:48.714Z,0.69
2019-03-25T05:37:18.407Z,0.92
2019-03-25T05:39:48.007Z,1.03
2019-03-25T05:42:17.705Z,0.98
2019-03-25T05:44:47.300Z,0.98
2019-03-25T05:47:17.049Z,0.87
2019-03-25T05:49:46.690Z,1.08
2019-03-25T05:52:16.791Z,1.24
2019-03-25T05:54:46.536Z,1.34
2019-03-25T05:57:16.208Z,1.46
2019-03-25T05:59:45.952Z,1.34
2019-03-25T06:02:15.648Z,1.51
2019-03-25T06:04:45.349Z,1.56
2019-03-25T06:07:15.065Z,1.72
2019-03-25T06:09:44.696Z,1.85
2019-03-25T06:12:14.422Z,1.90
2019-03-25T06:14:44.065Z,1.97
2019-03-25T06:17:14.966Z,2.19
2019-03-25T06:19:44.598Z,2.28
2019-03-25T06:22:14.287Z,2.36
2019-03-25T06:24:43.919Z,2.36
2019-03-25T06:27:14.628Z,2.55
2019-03-25T06:29:44.382Z,2.77
2019-03-25T06:32:14.128Z,2.88
2019-03-25T06:34:43.900Z,2.92
2019-03-25T06:37:14.731Z,2.71
2019-03-25T06:39:44.401Z,2.94
2019-03-25T06:42:14.106Z,3.21
2019-03-25T06:44:43.750Z,3.28
2019-03-25T06:47:15.240Z,3.50
2019-03-25T06:49:48.111Z,3.58
2019-03-25T06:52:21.212Z,3.30
2019-03-25T06:54:50.842Z,3.56
2019-03-25T06:57:25.609Z,3.55
2019-03-25T06:59:52.044Z,3.81
2019-03-25T07:02:23.390Z,4.00
2019-03-25T07:04:53.127Z,4.08
2019-03-25T07:07:24.012Z,4.47
2019-03-25T07:09:54.785Z,4.49
2019-03-25T07:12:30.844Z,4.57
2019-03-25T07:15:00.490Z,4.67
2019-03-25T07:17:31.384Z,4.84
2019-03-25T07:20:01.021Z,4.71
2019-03-25T07:22:30.703Z,4.88
2019-03-25T07:25:00.375Z,5.10
2019-03-25T07:27:36.679Z,5.48
2019-03-25T07:30:01.358Z,6.14
2019-03-25T07:32:31.118Z,6.52
2019-03-25T07:35:00.695Z,6.51
2019-03-25T07:37:31.788Z,6.97
2019-03-25T07:40:01.424Z,6.93
2019-03-25T07:42:30.971Z,6.59
2019-03-25T07:45:00.689Z,7.22
2019-03-25T07:47:30.312Z,7.22
2019-03-25T07:49:59.846Z,7.03
2019-03-25T07:52:29.466Z,7.35
2019-03-25T07:54:59.406Z,7.46
2019-03-25T07:57:29.029Z,8.02
2019-03-25T07:59:58.748Z,8.01
2019-03-25T08:02:28.551Z,8.27
2019-03-25T08:04:58.191Z,7.87
2019-03-25T08:07:28.037Z,7.64
2019-03-25T08:09:57.881Z,7.33
2019-03-25T08:12:27.519Z,7.19
2019-03-25T08:14:57.343Z,7.93
2019-03-25T08:17:26.993Z,8.55
2019-03-25T08:19:57.175Z,7.80
2019-03-25T08:22:26.883Z,7.29
2019-03-25T08:24:56.430Z,7.54
2019-03-25T08:27:26.173Z,7.30
2019-03-25T08:29:57.996Z,7.14
2019-03-25T08:32:27.915Z,7.12
2019-03-25T08:34:58.529Z,6.87
2019-03-25T08:37:28.668Z,7.07
2019-03-25T08:39:58.390Z,7.28
2019-03-25T08:42:27.996Z,8.23
2019-03-25T08:44:57.601Z,8.29
2019-03-25T08:47:28.723Z,8.46
2019-03-25T08:49:58.287Z,8.96
2019-03-25T08:52:27.938Z,8.85
2019-03-25T08:54:57.548Z,9.19
2019-03-25T08:57:27.159Z,9.20
2019-03-25T08:59:57.796Z,9.61
2019-03-25T09:02:28.671Z,9.15
2019-03-25T09:04:59.913Z,9.45
2019-03-25T09:07:29.496Z,9.59
2019-03-25T09:09:59.100Z,8.94
2019-03-25T09:12:28.728Z,8.86
2019-03-25T09:14:58.345Z,8.47
2019-03-25T09:17:27.975Z,8.41
2019-03-25T09:19:57.523Z,8.18
2019-03-25T09:22:27.111Z,8.36
2019-03-25T09:24:56.643Z,8.79
2019-03-25T09:27:27.863Z,8.59
2019-03-25T09:29:58.689Z,9.17
2019-03-25T09:32:28.315Z,9.38
2019-03-25T09:34:59.322Z,9.48
2019-03-25T09:37:29.071Z,9.87
2019-03-25T09:39:58.659Z,9.19
2019-03-25T09:42:28.313Z,9.50
2019-03-25T09:44:57.898Z,9.86
2019-03-25T09:47:27.603Z,8.96
2019-03-25T09:49:57.235Z,9.08
2019-03-25T09:52:37.931Z,9.78
2019-03-25T09:54:58.373Z,10.13
2019-03-25T09:57:28.058Z,9.70
2019-03-25T09:59:57.742Z,10.12
2019-03-25T10:02:27.469Z,10.59
2019-03-25T10:04:57.051Z,10.73
2019-03-25T10:07:28.388Z,10.11
2019-03-25T10:09:58.221Z,10.21
2019-03-25T10:12:30.449Z,10.08
2019-03-25T10:15:01.568Z,9.20
2019-03-25T10:17:31.191Z,9.35
2019-03-25T10:20:00.800Z,9.95
2019-03-25T10:22:30.514Z,10.06
2019-03-25T10:25:00.344Z,10.51
2019-03-25T10:27:30.105Z,10.29
2019-03-25T10:29:59.719Z,9.99
2019-03-25T10:32:29.837Z,10.19
2019-03-25T10:35:03.729Z,10.49
2019-03-25T10:37:37.141Z,10.33
2019-03-25T10:40:24.139Z,10.37
2019-03-25T10:42:53.810Z,10.49
2019-03-25T10:45:24.761Z,10.90
2019-03-25T10:47:54.517Z,9.88
2019-03-25T10:50:24.280Z,9.81
2019-03-25T10:52:53.879Z,10.63
2019-03-25T10:55:25.681Z,10.53
2019-03-25T10:57:55.682Z,11.06
2019-03-25T11:00:25.668Z,11.99
2019-03-25T11:02:56.321Z,11.78
2019-03-25T11:05:29.620Z,11.02
2019-03-25T11:07:59.288Z,11.14
2019-03-25T11:10:28.871Z,10.98
2019-03-25T11:12:58.530Z,11.41
2019-03-25T11:15:29.584Z,12.40
2019-03-25T11:17:59.180Z,11.99
2019-03-25T11:20:28.761Z,12.22
2019-03-25T11:22:58.429Z,12.23
2019-03-25T11:25:28.062Z,11.81
2019-03-25T11:27:57.657Z,12.09
2019-03-25T11:31:01.964Z,12.33
2019-03-25T11:33:31.690Z,12.33
2019-03-25T11:36:02.819Z,12.19
2019-03-25T11:38:32.733Z,11.60
2019-03-25T11:41:02.327Z,11.65
2019-03-25T11:43:33.074Z,11.79
2019-03-25T11:46:02.694Z,12.09
2019-03-25T11:48:35.094Z,12.38
2019-03-25T11:51:04.759Z,10.76
2019-03-25T11:53:35.408Z,11.24
2019-03-25T11:56:05.541Z,11.52
2019-03-25T11:58:35.123Z,11.48
2019-03-25T12:01:04.781Z,11.38
2019-03-25T12:03:36.658Z,11.26
2019-03-25T12:06:06.356Z,11.31
2019-03-25T12:08:35.994Z,12.17
2019-03-25T12:11:05.559Z,11.81
2019-03-25T12:13:35.161Z,11.85
2019-03-25T12:16:05.015Z,12.09
2019-03-25T12:18:34.594Z,11.01
2019-03-25T12:21:06.475Z,10.82
2019-03-25T12:23:37.342Z,11.03
2019-03-25T12:26:06.990Z,11.60
2019-03-25T12:28:36.628Z,11.36
2019-03-25T12:31:06.249Z,11.20
2019-03-25T12:33:35.874Z,10.70
2019-03-25T12:36:06.021Z,10.37
2019-03-25T12:38:35.741Z,9.65
2019-03-25T12:41:05.502Z,9.60
2019-03-25T12:43:35.104Z,9.71
2019-03-25T12:46:04.691Z,8.84
2019-03-25T12:48:34.362Z,8.09
2019-03-25T12:51:04.027Z,7.94
2019-03-25T12:53:33.749Z,8.35
2019-03-25T12:56:03.827Z,8.72
2019-03-25T12:58:33.564Z,9.21
2019-03-25T13:01:03.261Z,10.18
2019-03-25T13:03:33.159Z,10.09
2019-03-25T13:06:06.887Z,10.30
2019-03-25T13:08:37.481Z,10.25
2019-03-25T13:11:07.705Z,10.52
2019-03-25T13:13:40.881Z,11.52
2019-03-25T13:16:12.628Z,11.33
2019-03-25T13:18:43.205Z,10.84
2019-03-25T13:21:12.994Z,10.55
2019-03-25T13:23:45.193Z,9.88
2019-03-25T13:26:15.272Z,8.44
2019-03-25T13:28:45.450Z,8.27
2019-03-25T13:31:15.836Z,8.14
2019-03-25T13:33:45.853Z,8.28
2019-03-25T13:36:15.498Z,8.34
2019-03-25T13:38:45.193Z,8.45
2019-03-25T13:41:15.680Z,8.52
2019-03-25T13:43:45.623Z,8.56
2019-03-25T13:46:15.442Z,8.74
2019-03-25T13:48:45.177Z,8.99
2019-03-25T13:51:14.953Z,8.98
2019-03-25T13:53:48.353Z,8.80
2019-03-25T13:56:18.173Z,8.58
2019-03-25T13:58:48.469Z,8.41
2019-03-25T14:01:18.379Z,8.24
2019-03-25T14:03:50.057Z,8.08
2019-03-25T14:06:22.429Z,8.41
2019-03-25T14:08:55.841Z,8.58
2019-03-25T14:11:25.542Z,8.98
2019-03-25T14:13:55.342Z,8.79
2019-03-25T14:16:26.370Z,9.06
2019-03-25T14:18:55.986Z,8.98
2019-03-25T14:21:25.711Z,9.06
2019-03-25T14:23:55.701Z,9.25
2019-03-25T14:26:28.564Z,9.03
2019-03-25T14:28:59.495Z,8.72
2019-03-25T14:31:29.369Z,8.60
2019-03-25T14:33:59.253Z,8.74
2019-03-25T14:36:31.154Z,8.81
2019-03-25T14:39:00.994Z,8.76
2019-03-25T14:41:33.033Z,9.22
2019-03-25T14:44:02.709Z,9.21
2019-03-25T14:46:32.253Z,9.79
2019-03-25T14:49:02.123Z,10.05
2019-03-25T14:51:32.864Z,10.14
2019-03-25T14:54:02.448Z,9.98
2019-03-25T14:56:32.032Z,10.09
2019-03-25T14:59:01.740Z,10.29
2019-03-25T15:01:31.371Z,10.52
2019-03-25T15:04:00.995Z,10.25
2019-03-25T15:06:30.558Z,10.22
2019-03-25T15:09:00.129Z,9.89
2019-03-25T15:11:29.753Z,10.05
2019-03-25T15:13:59.303Z,9.77
2019-03-25T15:16:28.896Z,9.71
2019-03-25T15:18:58.439Z,9.99
2019-03-25T15:21:28.006Z,9.93
2019-03-25T15:23:57.538Z,9.96
2019-03-25T15:26:27.124Z,9.88
2019-03-25T15:28:57.186Z,10.02
2019-03-25T15:31:26.735Z,9.79
2019-03-25T15:33:56.348Z,9.87
2019-03-25T15:36:26.480Z,9.68
2019-03-25T15:38:56.346Z,9.55
2019-03-25T15:41:25.979Z,9.50
2019-03-25T15:43:55.590Z,9.44
2019-03-25T15:46:25.170Z,9.61
2019-03-25T15:48:54.768Z,9.42
2019-03-25T15:51:24.405Z,8.94
2019-03-25T15:53:54.509Z,8.42
2019-03-25T15:56:24.140Z,8.57
2019-03-25T15:58:56.252Z,8.39
2019-03-25T16:01:26.039Z,8.36
2019-03-25T16:03:55.887Z,8.15
2019-03-25T16:06:27.203Z,8.12
2019-03-25T16:08:56.796Z,8.22
2019-03-25T16:11:26.721Z,8.30
2019-03-25T16:13:56.307Z,8.15
2019-03-25T16:16:26.279Z,8.44
2019-03-25T16:18:55.931Z,8.35
2019-03-25T16:21:26.204Z,8.35
2019-03-25T16:23:56.208Z,8.58
2019-03-25T16:26:26.229Z,8.73
2019-03-25T16:28:56.065Z,8.60
2019-03-25T16:31:28.240Z,8.59
2019-03-25T16:33:57.893Z,8.45
2019-03-25T16:36:29.095Z,8.44
2019-03-25T16:38:58.677Z,8.41
2019-03-25T16:41:28.537Z,8.38
2019-03-25T16:43:58.145Z,8.18
2019-03-25T16:46:30.970Z,8.26
2019-03-25T16:49:00.577Z,8.34
2019-03-25T16:51:30.201Z,8.13
2019-03-25T16:54:00.636Z,8.34
2019-03-25T16:56:31.853Z,8.26
2019-03-25T16:59:01.492Z,8.49
2019-03-25T17:01:31.448Z,8.41
2019-03-25T17:04:01.066Z,8.30
2019-03-25T17:06:31.871Z,8.27
2019-03-25T17:09:01.496Z,8.18
2019-03-25T17:11:31.327Z,8.28
2019-03-25T17:14:00.938Z,8.18
2019-03-25T17:16:30.546Z,8.13
2019-03-25T17:19:02.092Z,8.04
2019-03-25T17:21:31.541Z,7.89
2019-03-25T17:24:01.225Z,7.89
2019-03-25T17:26:41.929Z,7.55
2019-03-25T17:29:03.476Z,7.78
2019-03-25T17:31:33.071Z,7.35
2019-03-25T17:34:02.645Z,7.23
2019-03-25T17:36:33.478Z,7.22
2019-03-25T17:39:03.161Z,7.53
2019-03-25T17:41:32.890Z,7.46
2019-03-25T17:44:04.340Z,7.84
2019-03-25T17:46:35.553Z,7.50
2019-03-25T17:49:05.859Z,7.49
2019-03-25T17:51:35.470Z,6.98
2019-03-25T17:54:05.287Z,7.05
2019-03-25T17:56:35.946Z,5.85
2019-03-25T17:59:05.509Z,5.69
2019-03-25T18:01:36.129Z,4.86
2019-03-25T18:04:05.994Z,4.87
2019-03-25T18:06:37.137Z,5.00
2019-03-25T18:09:09.386Z,4.96
2019-03-25T18:12:00.444Z,3.95
2019-03-25T18:14:31.364Z,5.00
2019-03-25T18:17:01.032Z,5.06
2019-03-25T18:19:30.693Z,5.20
2019-03-25T18:22:01.913Z,4.79
2019-03-25T18:24:31.541Z,4.99
2019-03-25T18:27:01.151Z,4.85
2019-03-25T18:29:30.714Z,5.24
2019-03-25T18:32:00.418Z,5.26
2019-03-25T18:34:30.033Z,5.37
2019-03-25T18:36:59.886Z,5.50
2019-03-25T18:39:29.501Z,5.67
2019-03-25T18:41:59.119Z,5.73
2019-03-25T18:44:28.768Z,5.81
2019-03-25T18:46:58.649Z,6.06
2019-03-25T18:49:28.762Z,5.63
2019-03-25T18:51:58.387Z,5.66
2019-03-25T18:54:28.247Z,5.66
2019-03-25T18:56:57.935Z,5.75
2019-03-25T18:59:27.584Z,5.63
2019-03-25T19:01:59.017Z,5.76
2019-03-25T19:04:31.250Z,5.77
2019-03-25T19:07:02.416Z,5.87
2019-03-25T19:09:32.248Z,5.81
2019-03-25T19:12:02.405Z,5.80
2019-03-25T19:14:31.964Z,5.64
2019-03-25T19:17:05.343Z,5.76
2019-03-25T19:19:35.305Z,5.82
2019-03-25T19:22:05.588Z,5.97
2019-03-25T19:24:35.351Z,5.95
2019-03-25T19:27:07.746Z,5.97
2019-03-25T19:29:37.541Z,5.95
2019-03-25T19:32:07.293Z,5.80
2019-03-25T19:34:36.994Z,5.83
2019-03-25T19:37:07.711Z,5.73
2019-03-25T19:39:38.627Z,5.53
2019-03-25T19:42:08.789Z,5.41
2019-03-25T19:44:38.634Z,5.40
2019-03-25T19:47:09.814Z,5.26
2019-03-25T19:49:39.394Z,5.39
2019-03-25T19:52:09.590Z,5.19
2019-03-25T19:54:39.311Z,5.07
2019-03-25T19:57:09.208Z,5.01
2019-03-25T19:59:38.908Z,5.07
2019-03-25T20:02:18.513Z,4.95
2019-03-25T20:04:39.859Z,4.94
2019-03-25T20:07:10.574Z,5.12
2019-03-25T20:09:42.515Z,5.01
2019-03-25T20:12:26.041Z,5.14
2019-03-25T20:14:56.825Z,5.21
2019-03-25T20:17:27.999Z,5.42
2019-03-25T20:19:57.999Z,5.42
2019-03-25T20:22:28.187Z,5.19
2019-03-25T20:24:58.429Z,5.12
2019-03-25T20:27:48.881Z,4.82
2019-03-25T20:30:18.584Z,4.86
2019-03-25T20:32:48.194Z,4.65
2019-03-25T20:35:17.783Z,4.63
2019-03-25T20:37:49.080Z,4.38
2019-03-25T20:40:18.780Z,4.22
2019-03-25T20:42:48.944Z,4.37
2019-03-25T20:45:19.012Z,4.39
2019-03-25T20:47:50.112Z,4.53
2019-03-25T20:50:19.734Z,4.57
2019-03-25T20:52:51.150Z,4.58
2019-03-25T20:55:20.702Z,4.65
2019-03-25T20:57:51.597Z,4.77
2019-03-25T21:00:37.959Z,4.84
2019-03-25T21:03:07.564Z,4.78
2019-03-25T21:05:37.151Z,4.79
2019-03-25T21:08:07.157Z,4.82
2019-03-25T21:10:36.741Z,4.69
2019-03-25T21:13:06.382Z,4.74
2019-03-25T21:15:35.892Z,4.50
2019-03-25T21:18:05.506Z,4.63
2019-03-25T21:20:35.130Z,4.86
2019-03-25T21:23:04.762Z,4.90
2019-03-25T21:25:34.701Z,5.04
2019-03-25T21:28:04.312Z,4.94
2019-03-25T21:30:47.027Z,5.01
2019-03-25T21:33:05.579Z,5.09
2019-03-25T21:35:35.164Z,1.45
2019-03-25T21:38:06.218Z,5.18
2019-03-25T21:40:35.876Z,4.95
2019-03-25T21:43:05.645Z,5.21
2019-03-25T21:45:35.204Z,4.89
2019-03-25T21:48:05.002Z,4.62
2019-03-25T21:50:34.696Z,4.47
2019-03-25T21:53:04.355Z,4.33
2019-03-25T21:55:34.152Z,4.55
2019-03-25T21:58:04.177Z,4.47
2019-03-25T22:00:33.822Z,4.56
2019-03-25T22:03:11.418Z,4.41
2019-03-25T22:05:34.700Z,4.53
2019-03-25T22:08:05.807Z,4.26
2019-03-25T22:10:35.421Z,4.44
2019-03-25T22:13:05.036Z,4.52
2019-03-25T22:15:34.638Z,4.51
2019-03-25T22:18:04.618Z,4.61
2019-03-25T22:20:34.279Z,4.69
2019-03-25T22:23:03.956Z,4.77
2019-03-25T22:25:33.538Z,4.69
2019-03-25T22:28:03.126Z,4.70
2019-03-25T22:30:32.736Z,4.67
2019-03-25T22:33:02.320Z,4.74
2019-03-25T22:35:31.903Z,4.96
2019-03-25T22:38:01.553Z,5.03
2019-03-25T22:40:31.142Z,5.05
2019-03-25T22:43:02.210Z,4.98
2019-03-25T22:45:32.306Z,5.03
2019-03-25T22:48:03.214Z,5.09
2019-03-25T22:50:33.246Z,5.12
2019-03-25T22:53:04.516Z,5.25
2019-03-25T22:55:34.155Z,5.24
2019-03-25T22:58:04.954Z,5.24
2019-03-25T23:00:47.652Z,5.31
2019-03-25T23:03:17.468Z,5.41
2019-03-25T23:05:47.369Z,5.39
2019-03-25T23:08:17.341Z,5.48
2019-03-25T23:10:47.032Z,5.54
2019-03-25T23:13:16.738Z,5.59
2019-03-25T23:15:46.286Z,5.48
2019-03-25T23:18:16.003Z,5.49
2019-03-25T23:20:45.696Z,5.60
2019-03-25T23:23:15.303Z,5.46
2019-03-25T23:25:44.888Z,5.40
2019-03-25T23:28:14.527Z,5.37
2019-03-25T23:30:44.126Z,5.44
2019-03-25T23:33:15.812Z,5.32
2019-03-25T23:35:45.384Z,5.29
2019-03-25T23:38:16.262Z,5.18
2019-03-25T23:40:45.935Z,5.20
2019-03-25T23:43:15.559Z,5.17
2019-03-25T23:45:45.376Z,5.12
2019-03-25T23:48:15.123Z,5.06
2019-03-25T23:50:44.787Z,5.12
2019-03-25T23:53:14.413Z,5.04
2019-03-25T23:55:44.009Z,4.95
2019-03-25T23:58:13.621Z,4.93
